Time;durP1;ratioP1;P1;durP2;ratioP2;P2;SDS_P1;SDS_P2;PMS_P1;PMS_P2;Temp;Humidity;BMP_temperature;BMP_pressure;BME280_temperature;BME280_humidity;BME280_pressure;Samples;Min_cycle;Max_cycle;Signal;HPM_P1;HPM_P2
2021/05/07 00:02:17;;;;;;;9.88;3.45;;;;;;;-145.71;100.00;60690.53;5031678;28;20481;-74
2021/05/07 00:04:42;;;;;;;7.00;4.22;;;;;;;-145.71;100.00;60690.53;5031858;28;20037;-74
2021/05/07 00:07:08;;;;;;;7.95;4.03;;;;;;;-145.71;100.00;60690.53;5031969;28;20029;-75
2021/05/07 00:09:33;;;;;;;10.25;4.82;;;;;;;-145.71;100.00;60690.53;5031869;28;20428;-74
2021/05/07 00:11:58;;;;;;;9.88;4.22;;;;;;;-145.71;100.00;60690.53;5013637;28;20223;-75
2021/05/07 00:14:24;;;;;;;10.35;4.22;;;;;;;-145.71;100.00;60690.53;5031619;28;20032;-75
2021/05/07 00:16:52;;;;;;;15.98;5.80;;;;;;;-145.71;100.00;60690.53;5028908;28;20040;-75
2021/05/07 00:19:18;;;;;;;8.50;4.18;;;;;;;-145.71;100.00;60690.53;5020133;28;20056;-75
2021/05/07 00:21:45;;;;;;;9.02;4.47;;;;;;;-145.71;100.00;60690.53;5031661;28;20029;-75
2021/05/07 00:24:10;;;;;;;11.52;5.68;;;;;;;-145.71;100.00;60690.53;5031454;28;20040;-75
2021/05/07 00:26:35;;;;;;;16.00;6.43;;;;;;;-145.71;100.00;60690.53;5031532;28;20025;-75
2021/05/07 00:29:01;;;;;;;10.30;4.18;;;;;;;-145.71;100.00;60690.53;5013411;28;20033;-75
2021/05/07 00:31:26;;;;;;;7.68;3.55;;;;;;;-145.71;100.00;60690.53;5027509;28;20042;-75
2021/05/07 00:33:52;;;;;;;12.20;4.82;;;;;;;-145.71;100.00;60690.53;4993545;28;20036;-75
2021/05/07 00:36:17;;;;;;;17.17;6.60;;;;;;;-145.71;100.00;60690.53;5026420;28;20057;-75
2021/05/07 00:38:43;;;;;;;11.38;5.20;;;;;;;-145.71;100.00;60690.53;4993686;28;20041;-74
2021/05/07 00:41:08;;;;;;;9.95;4.55;;;;;;;-145.71;100.00;60690.53;5011396;28;20036;-75
2021/05/07 00:43:33;;;;;;;34.97;8.60;;;;;;;-145.71;100.00;60690.53;5011469;28;20032;-74
2021/05/07 00:45:59;;;;;;;94.20;12.60;;;;;;;-145.71;100.00;60690.53;5015328;28;20033;-75
2021/05/07 00:48:26;;;;;;;11.90;4.00;;;;;;;-145.71;100.00;60690.53;5030942;28;20033;-76
2021/05/07 00:50:52;;;;;;;12.85;4.57;;;;;;;-145.71;100.00;60690.53;5030942;28;20037;-75
2021/05/07 00:53:19;;;;;;;13.38;5.03;;;;;;;-145.71;100.00;60690.53;5030860;28;20518;-75
2021/05/07 00:55:45;;;;;;;9.35;4.13;;;;;;;-145.71;100.00;60690.53;5030951;28;20061;-75
2021/05/07 00:58:11;;;;;;;8.73;3.88;;;;;;;-145.71;100.00;60690.53;5015596;28;20129;-75
2021/05/07 01:00:36;;;;;;;8.88;5.07;;;;;;;-145.71;100.00;60690.53;5011092;28;20504;-74
2021/05/07 01:03:02;;;;;;;7.28;3.20;;;;;;;-145.71;100.00;60690.53;4993191;28;20036;-75
2021/05/07 01:05:29;;;;;;;6.32;3.20;;;;;;;-145.71;100.00;60690.53;5011191;28;20034;-76
2021/05/07 01:07:55;;;;;;;9.43;4.57;;;;;;;-145.71;100.00;60690.53;4993141;28;20520;-75
2021/05/07 01:10:22;;;;;;;6.85;3.78;;;;;;;-145.71;100.00;60690.53;5011851;28;20097;-75
2021/05/07 01:12:47;;;;;;;8.13;4.40;;;;;;;-145.71;100.00;60690.53;5010786;28;20046;-75
2021/05/07 01:15:21;;;;;;;10.82;2.63;;;;;;;-145.71;100.00;60690.53;5010773;28;20421;-75
2021/05/07 01:17:49;;;;;;;6.20;2.67;;;;;;;-145.71;100.00;60690.53;5011810;28;20592;-75
2021/05/07 01:20:15;;;;;;;7.78;2.78;;;;;;;-145.71;100.00;60690.53;5015520;28;20493;-75
2021/05/07 01:22:42;;;;;;;8.20;3.00;;;;;;;-145.71;100.00;60690.53;5030203;28;20057;-75
2021/05/07 01:25:08;;;;;;;4.70;3.00;;;;;;;-145.71;100.00;60690.53;5030701;28;20041;-75
2021/05/07 01:27:37;;;;;;;11.75;4.47;;;;;;;-145.71;100.00;60690.53;5027398;28;20496;-75
2021/05/07 01:30:39;;;;;;;5.53;2.70;;;;;;;-145.71;100.00;60690.53;5010467;28;20103;-74
2021/05/07 01:33:05;;;;;;;7.35;3.75;;;;;;;-145.71;100.00;60690.53;4989166;28;20054;-75
2021/05/07 01:35:34;;;;;;;7.60;2.80;;;;;;;-145.71;100.00;60690.53;5010419;28;20030;-75
2021/05/07 01:38:05;;;;;;;7.43;2.65;;;;;;;-145.71;100.00;60690.53;5005534;28;20029;-75
2021/05/07 01:40:33;;;;;;;10.05;5.07;;;;;;;-145.71;100.00;60690.53;5023863;28;20488;-75
2021/05/07 01:42:59;;;;;;;7.32;3.58;;;;;;;-145.71;100.00;60690.53;4992224;28;20040;-74
2021/05/07 01:45:27;;;;;;;7.90;4.38;;;;;;;-145.71;100.00;60690.53;5009033;28;20042;-75
2021/05/07 01:47:53;;;;;;;9.82;3.80;;;;;;;-145.71;100.00;60690.53;5009881;28;20026;-75
2021/05/07 01:50:23;;;;;;;6.60;3.63;;;;;;;-145.71;100.00;60690.53;5009942;28;20022;-75
2021/05/07 01:52:50;;;;;;;7.32;3.17;;;;;;;-145.71;100.00;60690.53;5025079;28;20181;-75
2021/05/07 01:55:18;;;;;;;5.85;3.20;;;;;;;-145.71;100.00;60690.53;5024982;28;20482;-75
2021/05/07 01:57:44;;;;;;;13.07;5.90;;;;;;;-145.71;100.00;60690.53;5010232;28;20038;-75
2021/05/07 02:00:19;;;;;;;10.52;4.13;;;;;;;-145.71;100.00;60690.53;5009990;28;20073;-76
2021/05/07 02:02:45;;;;;;;9.50;4.43;;;;;;;-145.71;100.00;60690.53;4991791;28;20034;-75
2021/05/07 02:05:12;;;;;;;11.77;4.47;;;;;;;-145.71;100.00;60690.53;5027820;28;20033;-74
2021/05/07 02:07:37;;;;;;;12.20;3.70;;;;;;;-145.71;100.00;60690.53;5011648;28;20120;-74
2021/05/07 02:10:09;;;;;;;10.18;4.25;;;;;;;-145.71;100.00;60690.53;5026201;28;20529;-74
2021/05/07 02:12:35;;;;;;;6.45;4.35;;;;;;;-145.71;100.00;60690.53;5009539;28;20133;-75
2021/05/07 02:15:00;;;;;;;11.48;4.75;;;;;;;-145.71;100.00;60690.53;5009514;28;20116;-74
2021/05/07 02:17:25;;;;;;;11.98;4.40;;;;;;;-145.71;100.00;60690.53;5009300;28;20038;-74
2021/05/07 02:19:51;;;;;;;7.35;4.25;;;;;;;-145.71;100.00;60690.53;5009560;28;20041;-74
2021/05/07 02:22:16;;;;;;;16.27;5.05;;;;;;;-145.71;100.00;60690.53;5009472;28;20126;-75
2021/05/07 02:24:41;;;;;;;11.55;4.88;;;;;;;-145.71;100.00;60690.53;5009369;28;20391;-74
2021/05/07 02:27:07;;;;;;;12.30;5.90;;;;;;;-145.71;100.00;60690.53;5009464;28;20038;-74
2021/05/07 02:29:32;;;;;;;10.68;5.13;;;;;;;-145.71;100.00;60690.53;5010459;28;20061;-74
2021/05/07 02:31:57;;;;;;;12.15;6.25;;;;;;;-145.71;100.00;60690.53;5009441;28;20513;-75
2021/05/07 02:34:23;;;;;;;12.88;5.72;;;;;;;-145.71;100.00;60690.53;5009683;28;20029;-74
2021/05/07 02:36:48;;;;;;;11.05;5.55;;;;;;;-145.71;100.00;60690.53;5009403;28;20034;-74
2021/05/07 02:39:16;;;;;;;8.88;3.75;;;;;;;-145.71;100.00;60690.53;4991768;28;20569;-75
2021/05/07 02:41:42;;;;;;;9.35;4.72;;;;;;;-145.71;100.00;60690.53;5009559;28;20037;-74
2021/05/07 02:44:07;;;;;;;10.57;3.80;;;;;;;-145.71;100.00;60690.53;4991632;28;20030;-75
2021/05/07 02:46:34;;;;;;;8.90;4.63;;;;;;;-145.71;100.00;60690.53;4991040;28;20030;-75
2021/05/07 02:49:00;;;;;;;13.52;4.47;;;;;;;-145.71;100.00;60690.53;5009061;28;20030;-75
2021/05/07 02:51:25;;;;;;;15.45;4.85;;;;;;;-145.71;100.00;60690.53;5027478;28;20108;-75
2021/05/07 02:53:51;;;;;;;15.40;5.25;;;;;;;-145.71;100.00;60690.53;5010680;28;20450;-74
2021/05/07 02:56:16;;;;;;;12.43;4.10;;;;;;;-145.71;100.00;60690.53;5028476;28;20060;-75
2021/05/07 02:58:41;;;;;;;12.82;4.65;;;;;;;-145.71;100.00;60690.53;5028403;28;20553;-75
2021/05/07 03:01:07;;;;;;;13.30;5.25;;;;;;;-145.71;100.00;60690.53;5019181;28;20026;-75
2021/05/07 03:03:32;;;;;;;10.85;4.00;;;;;;;-145.71;100.00;60690.53;5008860;28;20065;-74
2021/05/07 03:05:57;;;;;;;5.60;4.03;;;;;;;-145.71;100.00;60690.53;5008713;28;20478;-74
2021/05/07 03:08:26;;;;;;;8.20;4.63;;;;;;;-145.71;100.00;60690.53;5009421;28;20030;-74
2021/05/07 03:10:51;;;;;;;12.93;4.53;;;;;;;-145.71;100.00;60690.53;4989207;28;20642;-75
2021/05/07 03:13:17;;;;;;;12.52;3.83;;;;;;;-145.71;100.00;60690.53;5006836;28;20577;-75
2021/05/07 03:15:43;;;;;;;11.82;4.75;;;;;;;-145.71;100.00;60690.53;5008658;28;20053;-74
2021/05/07 03:18:18;;;;;;;13.77;5.10;;;;;;;-145.71;100.00;60690.53;5008552;28;20037;-75
2021/05/07 03:20:44;;;;;;;16.65;4.20;;;;;;;-145.71;100.00;60690.53;5009323;28;20041;-74
2021/05/07 03:23:10;;;;;;;7.25;4.00;;;;;;;-145.71;100.00;60690.53;5028606;28;20033;-75
2021/05/07 03:25:36;;;;;;;18.35;5.60;;;;;;;-145.71;100.00;60690.53;5028948;28;20021;-75
2021/05/07 03:28:01;;;;;;;12.80;4.05;;;;;;;-145.71;100.00;60690.53;5026845;28;20041;-75
2021/05/07 03:30:27;;;;;;;11.13;4.72;;;;;;;-145.71;100.00;60690.53;5028777;28;20366;-75
2021/05/07 03:32:52;;;;;;;16.55;4.35;;;;;;;-145.71;100.00;60690.53;5028603;28;20452;-74
2021/05/07 03:35:18;;;;;;;11.38;4.75;;;;;;;-145.71;100.00;60690.53;5015264;28;20060;-75
2021/05/07 03:37:43;;;;;;;14.18;4.40;;;;;;;-145.71;100.00;60690.53;5023422;28;20034;-75
2021/05/07 03:40:09;;;;;;;21.77;5.60;;;;;;;-145.71;100.00;60690.53;5008688;28;20464;-75
2021/05/07 03:42:35;;;;;;;12.30;5.82;;;;;;;-145.71;100.00;60690.53;5008682;28;20026;-75
2021/05/07 03:45:00;;;;;;;20.40;5.50;;;;;;;-145.71;100.00;60690.53;5015311;28;20112;-75
2021/05/07 03:47:25;;;;;;;15.75;8.50;;;;;;;-145.71;100.00;60690.53;5010095;28;20124;-75
2021/05/07 03:49:51;;;;;;;15.13;8.00;;;;;;;-145.71;100.00;60690.53;5028848;28;20041;-75
2021/05/07 03:52:16;;;;;;;14.05;6.85;;;;;;;-145.71;100.00;60690.53;5027991;28;20465;-74
2021/05/07 03:54:43;;;;;;;8.65;5.72;;;;;;;-145.71;100.00;60690.53;5026479;28;20030;-75
2021/05/07 03:57:08;;;;;;;16.08;5.65;;;;;;;-145.71;100.00;60690.53;5028333;28;20389;-74
2021/05/07 03:59:34;;;;;;;12.95;6.40;;;;;;;-145.71;100.00;60690.53;5028341;28;20029;-75
2021/05/07 04:01:59;;;;;;;15.50;5.45;;;;;;;-145.71;100.00;60690.53;5014335;28;20036;-75
2021/05/07 04:04:24;;;;;;;12.43;4.93;;;;;;;-145.71;100.00;60690.53;5023345;28;20030;-75
2021/05/07 04:06:50;;;;;;;17.33;5.75;;;;;;;-145.71;100.00;60690.53;5008413;28;20034;-75
2021/05/07 04:09:23;;;;;;;8.00;4.57;;;;;;;-145.71;100.00;60690.53;5011421;28;20026;-75
2021/05/07 04:14:14;;;;;;;11.60;4.50;;;;;;;-145.71;100.00;60690.53;5012198;28;20034;-74
2021/05/07 04:16:39;;;;;;;11.43;3.72;;;;;;;-145.71;100.00;60690.53;4995411;28;20112;-74
2021/05/07 04:19:05;;;;;;;9.63;4.13;;;;;;;-145.71;100.00;60690.53;5011653;28;20037;-75
2021/05/07 04:21:30;;;;;;;6.35;4.40;;;;;;;-145.71;100.00;60690.53;5011726;28;20034;-75
2021/05/07 04:23:56;;;;;;;7.07;4.00;;;;;;;-145.71;100.00;60690.53;5011741;28;20029;-75
2021/05/07 04:26:21;;;;;;;10.48;2.78;;;;;;;-145.71;100.00;60690.53;4993841;28;20057;-75
2021/05/07 04:28:46;;;;;;;8.90;3.55;;;;;;;-145.71;100.00;60690.53;4998026;28;20091;-74
2021/05/07 04:31:12;;;;;;;5.95;3.15;;;;;;;-145.71;100.00;60690.53;5012903;28;20033;-75
2021/05/07 04:33:37;;;;;;;5.28;2.97;;;;;;;-145.71;100.00;60690.53;5006773;28;20037;-75
2021/05/07 04:36:03;;;;;;;5.28;2.40;;;;;;;-145.71;100.00;60690.53;5011362;28;20034;-75
2021/05/07 04:38:28;;;;;;;6.28;2.50;;;;;;;-145.71;100.00;60690.53;5011484;28;20108;-74
2021/05/07 04:40:53;;;;;;;6.32;2.50;;;;;;;-145.71;100.00;60690.53;5012449;28;20038;-74
2021/05/07 04:43:19;;;;;;;5.13;3.33;;;;;;;-145.71;100.00;60690.53;4993756;28;20029;-75
2021/05/07 04:45:44;;;;;;;6.07;2.85;;;;;;;-145.71;100.00;60690.53;5011484;28;20156;-73
2021/05/07 04:48:11;;;;;;;5.13;2.60;;;;;;;-145.71;100.00;60690.53;5011206;28;20394;-76
2021/05/07 04:50:37;;;;;;;5.82;2.65;;;;;;;-145.71;100.00;60690.53;4993203;28;20034;-76
2021/05/07 04:53:02;;;;;;;4.30;3.00;;;;;;;-145.71;100.00;60690.53;4994527;28;20041;-76
2021/05/07 04:55:27;;;;;;;6.97;3.60;;;;;;;-145.71;100.00;60690.53;4997216;28;20029;-76
2021/05/07 04:57:52;;;;;;;6.82;3.03;;;;;;;-145.71;100.00;60690.53;5011437;28;20109;-76
2021/05/07 05:00:18;;;;;;;6.82;3.83;;;;;;;-145.71;100.00;60690.53;5028889;28;20401;-76
2021/05/07 05:02:44;;;;;;;10.63;3.60;;;;;;;-145.71;100.00;60690.53;4994636;28;20072;-76
2021/05/07 05:05:10;;;;;;;8.52;4.10;;;;;;;-145.71;100.00;60690.53;5011524;28;20160;-76
2021/05/07 05:07:35;;;;;;;10.45;3.95;;;;;;;-145.71;100.00;60690.53;5026978;28;20405;-76
2021/05/07 05:10:02;;;;;;;9.25;3.38;;;;;;;-145.71;100.00;60690.53;5025554;28;20029;-76
2021/05/07 05:12:28;;;;;;;9.95;2.85;;;;;;;-145.71;100.00;60690.53;4997598;28;20599;-76
2021/05/07 05:14:53;;;;;;;10.25;3.80;;;;;;;-145.71;100.00;60690.53;5012598;28;20069;-76
2021/05/07 05:17:21;;;;;;;14.50;3.95;;;;;;;-145.71;100.00;60690.53;5010518;28;20049;-76
2021/05/07 05:19:47;;;;;;;10.55;2.75;;;;;;;-145.71;100.00;60690.53;4991788;28;20038;-76
2021/05/07 05:22:14;;;;;;;7.65;2.88;;;;;;;-145.71;100.00;60690.53;4992222;28;20513;-76
2021/05/07 05:24:39;;;;;;;9.95;3.58;;;;;;;-145.71;100.00;60690.53;5010761;28;20030;-76
2021/05/07 05:27:05;;;;;;;17.98;4.80;;;;;;;-145.71;100.00;60690.53;4992827;28;20072;-76
2021/05/07 05:29:30;;;;;;;12.93;5.13;;;;;;;-145.71;100.00;60690.53;5015256;28;20508;-76
2021/05/07 05:31:55;;;;;;;12.30;3.53;;;;;;;-145.71;100.00;60690.53;5019508;28;20088;-76
2021/05/07 05:34:20;;;;;;;12.05;4.63;;;;;;;-145.71;100.00;60690.53;4992542;28;20026;-76
2021/05/07 05:36:46;;;;;;;18.60;5.10;;;;;;;-145.71;100.00;60690.53;5027089;28;20041;-76
2021/05/07 05:39:15;;;;;;;12.35;6.60;;;;;;;-145.71;100.00;60690.53;5012765;28;20536;-77
2021/05/07 05:41:41;;;;;;;9.90;5.07;;;;;;;-145.71;100.00;60690.53;5021328;28;20029;-74
2021/05/07 05:44:08;;;;;;;9.73;4.07;;;;;;;-145.71;100.00;60690.53;5010344;28;20074;-75
2021/05/07 05:46:35;;;;;;;10.05;3.92;;;;;;;-145.71;100.00;60690.53;5014805;28;20068;-74
2021/05/07 05:49:01;;;;;;;10.70;4.40;;;;;;;-145.71;100.00;60690.53;5010288;28;20456;-74
2021/05/07 05:51:26;;;;;;;12.57;3.53;;;;;;;-145.71;100.00;60690.53;5011078;28;20120;-75
2021/05/07 05:53:51;;;;;;;8.73;3.42;;;;;;;-145.71;100.00;60690.53;5010133;28;20026;-75
2021/05/07 05:56:16;;;;;;;12.48;4.00;;;;;;;-145.71;100.00;60690.53;5008871;28;20029;-74
2021/05/07 05:58:42;;;;;;;9.80;3.58;;;;;;;-145.71;100.00;60690.53;5006767;28;20033;-74
2021/05/07 06:01:07;;;;;;;12.65;3.25;;;;;;;-145.71;100.00;60690.53;4999946;28;20037;-74
2021/05/07 06:03:32;;;;;;;6.22;3.50;;;;;;;-145.71;100.00;60690.53;5024806;28;20080;-74
2021/05/07 06:05:58;;;;;;;11.23;4.07;;;;;;;-145.71;100.00;60690.53;5010176;28;20407;-74
2021/05/07 06:08:23;;;;;;;7.22;3.35;;;;;;;-145.71;100.00;60690.53;5009435;28;20026;-74
2021/05/07 06:10:49;;;;;;;5.50;3.00;;;;;;;-145.71;100.00;60690.53;5009618;28;20059;-72
2021/05/07 06:13:14;;;;;;;7.05;4.70;;;;;;;-145.71;100.00;60690.53;5027202;28;20072;-72
2021/05/07 06:15:39;;;;;;;8.38;3.22;;;;;;;-145.71;100.00;60690.53;5029130;28;20116;-72
2021/05/07 06:18:05;;;;;;;4.18;2.10;;;;;;;-145.71;100.00;60690.53;4997621;28;20034;-71
2021/05/07 06:20:30;;;;;;;11.40;3.58;;;;;;;-145.71;100.00;60690.53;4991393;28;20028;-72
2021/05/07 06:22:56;;;;;;;3.35;2.83;;;;;;;-145.71;100.00;60690.53;5000538;28;20033;-72
2021/05/07 06:25:24;;;;;;;4.10;2.22;;;;;;;-145.71;100.00;60690.53;5011054;28;20036;-71
2021/05/07 06:27:50;;;;;;;2.55;2.35;;;;;;;-145.71;100.00;60690.53;5028831;28;20112;-71
2021/05/07 06:30:16;;;;;;;8.25;2.72;;;;;;;-145.71;100.00;60690.53;5028848;28;20112;-72
2021/05/07 06:32:41;;;;;;;4.07;2.38;;;;;;;-145.71;100.00;60690.53;5003960;28;20061;-72
2021/05/07 06:35:10;;;;;;;3.28;2.30;;;;;;;-145.71;100.00;60690.53;5028076;28;20497;-72
2021/05/07 06:37:36;;;;;;;10.38;2.53;;;;;;;-145.71;100.00;60690.53;5019275;28;20552;-72
2021/05/07 06:40:05;;;;;;;3.53;2.15;;;;;;;-145.71;100.00;60690.53;5009160;28;20065;-73
2021/05/07 06:42:33;;;;;;;3.47;2.70;;;;;;;-145.71;100.00;60690.53;5009950;28;20034;-74
2021/05/07 06:44:58;;;;;;;4.43;3.35;;;;;;;-145.71;100.00;60690.53;4991054;28;20029;-71
2021/05/07 06:47:23;;;;;;;5.28;2.58;;;;;;;-145.71;100.00;60690.53;5024096;28;20030;-72
2021/05/07 06:49:48;;;;;;;6.85;3.53;;;;;;;-145.71;100.00;60690.53;5010273;28;20044;-74
2021/05/07 06:52:14;;;;;;;5.82;4.00;;;;;;;-145.71;100.00;60690.53;5018711;28;20029;-74
2021/05/07 06:54:39;;;;;;;2.88;2.67;;;;;;;-145.71;100.00;60690.53;5020253;28;20026;-74
2021/05/07 06:57:04;;;;;;;4.30;2.92;;;;;;;-145.71;100.00;60690.53;5008735;28;20088;-74
2021/05/07 06:59:30;;;;;;;4.85;2.40;;;;;;;-145.71;100.00;60690.53;4998396;28;20030;-75
2021/05/07 07:01:55;;;;;;;3.40;3.10;;;;;;;-145.71;100.00;60690.53;5008659;28;20037;-74
2021/05/07 07:04:21;;;;;;;5.13;3.30;;;;;;;-145.71;100.00;60690.53;5020899;28;20116;-75
2021/05/07 07:06:46;;;;;;;5.97;2.95;;;;;;;-145.71;100.00;60690.53;4997331;28;20515;-74
2021/05/07 07:09:12;;;;;;;3.28;2.47;;;;;;;-145.71;100.00;60690.53;5009684;28;20507;-75
2021/05/07 07:11:38;;;;;;;6.45;3.30;;;;;;;-145.71;100.00;60690.53;5009686;28;20512;-75
2021/05/07 07:14:04;;;;;;;4.57;3.38;;;;;;;-145.71;100.00;60690.53;5008593;28;20045;-75
2021/05/07 07:16:30;;;;;;;3.03;2.63;;;;;;;-145.71;100.00;60690.53;4990625;28;20153;-76
2021/05/07 07:18:55;;;;;;;3.03;2.65;;;;;;;-145.71;100.00;60690.53;5026537;28;20037;-75
2021/05/07 07:21:20;;;;;;;6.18;3.47;;;;;;;-145.71;100.00;60690.53;5028253;28;20421;-76
2021/05/07 07:23:46;;;;;;;2.78;2.53;;;;;;;-145.71;100.00;60690.53;5024938;28;20101;-75
2021/05/07 07:26:11;;;;;;;3.00;2.67;;;;;;;-145.71;100.00;60690.53;5028298;28;20029;-76
2021/05/07 07:28:37;;;;;;;2.95;2.67;;;;;;;-145.71;100.00;60690.53;5019211;28;20088;-76
2021/05/07 07:31:03;;;;;;;2.20;2.10;;;;;;;-145.71;100.00;60690.53;4990578;28;20075;-75
2021/05/07 07:33:29;;;;;;;2.20;1.88;;;;;;;-145.71;100.00;60690.53;5008601;28;20088;-75
2021/05/07 07:35:55;;;;;;;3.60;1.92;;;;;;;-145.71;100.00;60690.53;5012388;28;20037;-75
2021/05/07 07:38:20;;;;;;;4.03;2.70;;;;;;;-145.71;100.00;60690.53;5014935;28;20033;-74
2021/05/07 07:40:46;;;;;;;4.63;2.03;;;;;;;-145.71;100.00;60690.53;5008175;28;20038;-74
2021/05/07 07:43:11;;;;;;;2.80;1.70;;;;;;;-145.71;100.00;60690.53;5002490;28;20052;-75
2021/05/07 07:45:36;;;;;;;2.95;2.33;;;;;;;-145.71;100.00;60690.53;4993667;28;20107;-75
2021/05/07 07:48:02;;;;;;;2.10;1.90;;;;;;;-145.71;100.00;60690.53;5013820;28;20030;-75
2021/05/07 07:50:27;;;;;;;2.17;2.05;;;;;;;-145.71;100.00;60690.53;5011849;28;20044;-75
2021/05/07 07:52:53;;;;;;;6.82;3.10;;;;;;;-145.71;100.00;60690.53;5011888;28;20034;-72
2021/05/07 07:55:18;;;;;;;3.70;3.20;;;;;;;-145.71;100.00;60690.53;5014268;28;20448;-72
2021/05/07 07:57:43;;;;;;;2.75;2.50;;;;;;;-145.71;100.00;60690.53;5011118;28;20471;-75
2021/05/07 08:00:09;;;;;;;2.53;2.33;;;;;;;-145.71;100.00;60690.53;5010915;28;20034;-72
2021/05/07 08:02:35;;;;;;;2.30;1.67;;;;;;;-145.71;100.00;60690.53;5010567;28;20116;-73
2021/05/07 08:05:00;;;;;;;1.50;1.40;;;;;;;-145.71;100.00;60690.53;5018091;28;20022;-74
2021/05/07 08:07:26;;;;;;;3.70;1.77;;;;;;;-145.71;100.00;60690.53;5010904;28;20061;-75
2021/05/07 08:09:51;;;;;;;1.85;1.48;;;;;;;-145.71;100.00;60690.53;5013802;28;20056;-74
2021/05/07 08:12:16;;;;;;;3.38;1.83;;;;;;;-145.71;100.00;60690.53;5003606;28;20121;-75
2021/05/07 08:14:42;;;;;;;3.35;2.00;;;;;;;-145.71;100.00;60690.53;5010853;28;20542;-75
2021/05/07 08:17:08;;;;;;;4.60;2.40;;;;;;;-145.71;100.00;60690.53;4993801;28;20021;-75
2021/05/07 08:19:35;;;;;;;6.22;1.88;;;;;;;-145.71;100.00;60690.53;5010205;28;20041;-75
2021/05/07 08:22:00;;;;;;;4.53;2.97;;;;;;;-145.71;100.00;60690.53;5003792;28;20126;-75
2021/05/07 08:24:26;;;;;;;2.72;2.50;;;;;;;-145.71;100.00;60690.53;4991634;28;20136;-75
2021/05/07 08:26:52;;;;;;;6.28;2.03;;;;;;;-145.71;100.00;60690.53;5009180;28;20058;-74
2021/05/07 08:29:18;;;;;;;4.70;2.40;;;;;;;-145.71;100.00;60690.53;5010542;28;20026;-76
2021/05/07 08:31:45;;;;;;;4.63;1.92;;;;;;;-145.71;100.00;60690.53;4992542;28;20034;-75
2021/05/07 08:34:10;;;;;;;5.25;2.50;;;;;;;-145.71;100.00;60690.53;4997131;28;20021;-74
2021/05/07 08:36:36;;;;;;;5.78;2.40;;;;;;;-145.71;100.00;60690.53;5004863;28;20569;-74
2021/05/07 08:39:02;;;;;;;8.90;2.53;;;;;;;-145.71;100.00;60690.53;5010361;28;20040;-75
2021/05/07 08:41:27;;;;;;;6.72;2.45;;;;;;;-145.71;100.00;60690.53;4994473;28;20542;-75
2021/05/07 08:43:53;;;;;;;6.85;2.30;;;;;;;-145.71;100.00;60690.53;5003653;28;20041;-75
2021/05/07 08:46:18;;;;;;;4.00;2.38;;;;;;;-145.71;100.00;60690.53;5013983;28;20121;-75
2021/05/07 08:48:44;;;;;;;4.32;2.58;;;;;;;-145.71;100.00;60690.53;5010308;28;20120;-75
2021/05/07 08:51:11;;;;;;;5.50;2.75;;;;;;;-145.71;100.00;60690.53;5010224;28;20427;-74
2021/05/07 08:53:36;;;;;;;4.93;2.38;;;;;;;-145.71;100.00;60690.53;4995496;28;20111;-75
2021/05/07 08:56:07;;;;;;;5.45;2.70;;;;;;;-145.71;100.00;60690.53;5002353;28;20549;-75
2021/05/07 08:58:33;;;;;;;6.72;2.50;;;;;;;-145.71;100.00;60690.53;5009888;28;20037;-75
2021/05/07 09:00:58;;;;;;;7.43;2.58;;;;;;;-145.71;100.00;60690.53;5010967;28;20038;-74
2021/05/07 09:03:24;;;;;;;3.50;2.47;;;;;;;-145.71;100.00;60690.53;5022351;28;20026;-76
2021/05/07 09:05:49;;;;;;;4.32;2.40;;;;;;;-145.71;100.00;60690.53;5019152;28;20048;-75
2021/05/07 09:08:15;;;;;;;3.83;2.67;;;;;;;-145.71;100.00;60690.53;5008320;28;20037;-75
2021/05/07 09:10:46;;;;;;;3.60;2.10;;;;;;;-145.71;100.00;60690.53;5010268;28;20021;-76
2021/05/07 09:13:14;;;;;;;3.55;2.03;;;;;;;-145.71;100.00;60690.53;5011937;28;20080;-74
2021/05/07 09:15:44;;;;;;;3.30;2.08;;;;;;;-145.71;100.00;60690.53;5009626;28;20026;-75
2021/05/07 09:18:11;;;;;;;4.57;2.13;;;;;;;-145.71;100.00;60690.53;5003090;28;20393;-75
2021/05/07 09:20:42;;;;;;;6.65;2.80;;;;;;;-145.71;100.00;60690.53;5008103;28;20100;-75
2021/05/07 09:23:12;;;;;;;7.43;2.22;;;;;;;-145.71;100.00;60690.53;5009623;28;20127;-75
2021/05/07 09:25:48;;;;;;;9.43;2.38;;;;;;;-145.71;100.00;60690.53;5000322;28;20061;-75
2021/05/07 09:28:16;;;;;;;6.00;2.60;;;;;;;-145.71;100.00;60690.53;5009634;28;20117;-76
2021/05/07 09:30:43;;;;;;;5.07;2.08;;;;;;;-145.71;100.00;60690.53;5011555;28;20469;-75
2021/05/07 09:33:11;;;;;;;7.53;2.17;;;;;;;-145.71;100.00;60690.53;5008321;28;20029;-75
2021/05/07 09:35:37;;;;;;;8.93;2.10;;;;;;;-145.71;100.00;60690.53;5008305;28;20029;-75
2021/05/07 09:38:08;;;;;;;9.07;2.50;;;;;;;-145.71;100.00;60690.53;5007398;28;20034;-76
2021/05/07 09:40:35;;;;;;;5.17;2.03;;;;;;;-145.71;100.00;60690.53;5013480;28;20028;-76
2021/05/07 09:43:04;;;;;;;8.65;2.17;;;;;;;-145.71;100.00;60690.53;5012938;28;20319;-76
2021/05/07 09:45:29;;;;;;;6.65;2.80;;;;;;;-145.71;100.00;60690.53;5023413;28;20040;-75
2021/05/07 09:47:55;;;;;;;9.68;3.10;;;;;;;-145.71;100.00;60690.53;5013318;28;20026;-75
2021/05/07 09:50:37;;;;;;;7.35;2.17;;;;;;;-145.71;100.00;60690.53;5016426;28;20542;-75
2021/05/07 09:53:11;;;;;;;14.68;2.65;;;;;;;-145.71;100.00;60690.53;5011451;28;20061;-75
2021/05/07 09:55:38;;;;;;;7.28;2.42;;;;;;;-145.71;100.00;60690.53;4992353;28;20046;-75
2021/05/07 09:58:03;;;;;;;7.80;3.10;;;;;;;-145.71;100.00;60690.53;5008874;28;20022;-75
2021/05/07 10:00:30;;;;;;;11.88;2.53;;;;;;;-145.71;100.00;60690.53;5007445;28;20429;-75
2021/05/07 10:02:55;;;;;;;5.57;2.28;;;;;;;-145.71;100.00;60690.53;5008628;28;20096;-75
2021/05/07 10:05:23;;;;;;;8.60;2.28;;;;;;;-145.71;100.00;60690.53;5015549;28;20033;-75
2021/05/07 10:07:48;;;;;;;2.70;1.75;;;;;;;-145.71;100.00;60690.53;5013365;28;20104;-75
2021/05/07 10:10:14;;;;;;;8.85;2.28;;;;;;;-145.71;100.00;60690.53;5015699;28;20026;-74
2021/05/07 10:12:43;;;;;;;3.58;1.90;;;;;;;-145.71;100.00;60690.53;5018363;28;20112;-74
2021/05/07 10:15:09;;;;;;;6.78;2.25;;;;;;;-145.71;100.00;60690.53;5009491;28;20053;-74
2021/05/07 10:17:35;;;;;;;4.70;1.63;;;;;;;-145.71;100.00;60690.53;5003852;28;20061;-75
2021/05/07 10:20:01;;;;;;;4.45;1.58;;;;;;;-145.71;100.00;60690.53;5000698;28;20034;-75
2021/05/07 10:22:37;;;;;;;3.13;1.40;;;;;;;-145.71;100.00;60690.53;5008350;28;20484;-74
2021/05/07 10:25:13;;;;;;;2.55;1.20;;;;;;;-145.71;100.00;60690.53;5013194;28;20029;-75
2021/05/07 10:27:46;;;;;;;6.55;1.80;;;;;;;-145.71;100.00;60690.53;5016307;28;20040;-74
2021/05/07 10:30:24;;;;;;;8.48;2.05;;;;;;;-145.71;100.00;60690.53;5008478;28;20085;-74
2021/05/07 10:33:14;;;;;;;4.60;1.50;;;;;;;-145.71;100.00;60690.53;5004906;28;20555;-74
2021/05/07 10:35:39;;;;;;;6.93;1.55;;;;;;;-145.71;100.00;60690.53;4993910;28;20041;-74
2021/05/07 10:38:12;;;;;;;4.43;1.77;;;;;;;-145.71;100.00;60690.53;5008153;28;20034;-75
2021/05/07 10:40:39;;;;;;;4.20;2.15;;;;;;;-145.71;100.00;60690.53;5011047;28;20077;-75
2021/05/07 10:43:05;;;;;;;2.35;1.20;;;;;;;-145.71;100.00;60690.53;5008050;28;20121;-74
2021/05/07 10:45:44;;;;;;;4.80;2.45;;;;;;;-145.71;100.00;60690.53;5009373;28;20044;-74
2021/05/07 10:48:15;;;;;;;7.55;1.70;;;;;;;-145.71;100.00;60690.53;5002737;28;20038;-74
2021/05/07 10:50:41;;;;;;;10.40;1.88;;;;;;;-145.71;100.00;60690.53;5006876;28;20034;-75
2021/05/07 10:53:07;;;;;;;5.43;1.92;;;;;;;-145.71;100.00;60690.53;5007858;28;20104;-75
2021/05/07 10:55:34;;;;;;;8.75;1.50;;;;;;;-145.71;100.00;60690.53;5009926;28;20516;-74
2021/05/07 10:58:04;;;;;;;4.38;1.50;;;;;;;-145.71;100.00;60690.53;5010080;28;20038;-75
2021/05/07 11:00:35;;;;;;;2.92;1.30;;;;;;;-145.71;100.00;60690.53;5008065;28;20081;-74
2021/05/07 11:03:00;;;;;;;3.55;1.60;;;;;;;-145.71;100.00;60690.53;5006278;28;20434;-75
2021/05/07 11:05:38;;;;;;;6.05;1.83;;;;;;;-145.71;100.00;60690.53;5007923;28;20033;-75
2021/05/07 11:08:05;;;;;;;5.35;1.98;;;;;;;-145.71;100.00;60690.53;5011674;28;20091;-74